Time;durP1;ratioP1;P1;durP2;ratioP2;P2;SDS_P1;SDS_P2;PMS_P1;PMS_P2;Temp;Humidity;BMP_temperature;BMP_pressure;BME280_temperature;BME280_humidity;BME280_pressure;Samples;Min_cycle;Max_cycle;Signal;HPM_P1;HPM_P2
2021/05/28 00:00:29;;;;;;;8.60;5.80;;;;;;;;;;5052055;28;20396;-51
2021/05/28 00:02:55;;;;;;;17.33;6.73;;;;;;;;;;5051855;28;20431;-51
2021/05/28 00:05:21;;;;;;;14.77;7.10;;;;;;;;;;5051788;28;20407;-51
2021/05/28 00:07:47;;;;;;;10.93;6.43;;;;;;;;;;5052086;28;20429;-51
2021/05/28 00:10:13;;;;;;;8.00;6.23;;;;;;;;;;5051907;28;20908;-51
2021/05/28 00:12:39;;;;;;;9.07;7.50;;;;;;;;;;5051758;28;20405;-51
2021/05/28 00:15:08;;;;;;;20.87;7.70;;;;;;;;;;5051676;28;20409;-51
2021/05/28 00:17:34;;;;;;;10.30;6.97;;;;;;;;;;5051546;28;20488;-51
2021/05/28 00:20:00;;;;;;;12.57;7.43;;;;;;;;;;5051478;28;20404;-51
2021/05/28 00:22:26;;;;;;;7.50;6.70;;;;;;;;;;5051328;28;20428;-51
2021/05/28 00:24:52;;;;;;;9.53;7.87;;;;;;;;;;5051567;28;20462;-51
2021/05/28 00:27:18;;;;;;;8.03;7.20;;;;;;;;;;5051376;28;20410;-51
2021/05/28 00:29:44;;;;;;;11.47;7.60;;;;;;;;;;5051258;28;20401;-51
2021/05/28 00:32:10;;;;;;;9.37;7.63;;;;;;;;;;5051248;28;20832;-51
2021/05/28 00:34:36;;;;;;;15.23;7.70;;;;;;;;;;5051090;28;20405;-51
2021/05/28 00:37:02;;;;;;;12.27;7.07;;;;;;;;;;5051428;28;20409;-51
2021/05/28 00:39:28;;;;;;;11.00;7.80;;;;;;;;;;5051367;28;20420;-51
2021/05/28 00:41:54;;;;;;;10.93;7.10;;;;;;;;;;5051023;28;20753;-51
2021/05/28 00:44:22;;;;;;;15.20;8.20;;;;;;;;;;5051269;28;20405;-51
2021/05/28 00:46:48;;;;;;;8.70;7.17;;;;;;;;;;5050950;28;20881;-51
2021/05/28 00:49:14;;;;;;;14.03;8.73;;;;;;;;;;5050971;28;20421;-51
2021/05/28 00:51:40;;;;;;;11.00;8.60;;;;;;;;;;5050649;28;20662;-52
2021/05/28 00:54:06;;;;;;;10.00;8.00;;;;;;;;;;5050903;28;20428;-51
2021/05/28 00:56:33;;;;;;;12.13;8.03;;;;;;;;;;5051031;28;20516;-51
2021/05/28 00:59:00;;;;;;;10.90;7.80;;;;;;;;;;5050923;28;21036;-51
2021/05/28 01:01:26;;;;;;;8.23;7.40;;;;;;;;;;5050238;28;20897;-52
2021/05/28 01:03:52;;;;;;;6.83;6.23;;;;;;;;;;5050011;28;20397;-51
2021/05/28 01:06:18;;;;;;;10.53;6.90;;;;;;;;;;5050355;28;20909;-51
2021/05/28 01:08:44;;;;;;;11.07;8.50;;;;;;;;;;5050457;28;20516;-50
2021/05/28 01:11:10;;;;;;;8.40;7.60;;;;;;;;;;5050686;28;20525;-51
2021/05/28 01:13:36;;;;;;;11.73;7.60;;;;;;;;;;5050593;28;20412;-51
2021/05/28 01:16:02;;;;;;;12.60;7.33;;;;;;;;;;5050687;28;20405;-51
2021/05/28 01:18:28;;;;;;;8.43;6.93;;;;;;;;;;5050531;28;20495;-51
2021/05/28 01:20:54;;;;;;;8.80;7.43;;;;;;;;;;5050599;28;20436;-51
2021/05/28 01:23:20;;;;;;;12.80;8.10;;;;;;;;;;5050455;28;20402;-51
2021/05/28 01:25:46;;;;;;;9.03;7.57;;;;;;;;;;5050559;28;20404;-50
2021/05/28 01:28:12;;;;;;;8.53;7.33;;;;;;;;;;5050620;28;20779;-51
2021/05/28 01:30:38;;;;;;;11.07;7.60;;;;;;;;;;5050588;28;20401;-51
2021/05/28 01:33:05;;;;;;;9.07;7.37;;;;;;;;;;5050399;28;20412;-51
2021/05/28 01:35:31;;;;;;;11.10;8.10;;;;;;;;;;5050873;28;20413;-50
2021/05/28 01:37:58;;;;;;;10.70;8.83;;;;;;;;;;5050830;28;20829;-51
2021/05/28 01:40:24;;;;;;;9.50;7.63;;;;;;;;;;5050749;28;20397;-51
2021/05/28 01:42:50;;;;;;;13.00;7.90;;;;;;;;;;5050381;28;20393;-51
2021/05/28 01:45:19;;;;;;;10.83;8.17;;;;;;;;;;5050711;28;20480;-51
2021/05/28 01:47:45;;;;;;;14.17;8.93;;;;;;;;;;5050486;28;20445;-51
2021/05/28 01:50:11;;;;;;;10.80;8.30;;;;;;;;;;5050632;28;20908;-51
2021/05/28 01:52:37;;;;;;;13.50;8.80;;;;;;;;;;5050105;28;20402;-51
2021/05/28 01:55:04;;;;;;;9.80;8.40;;;;;;;;;;5050490;28;20905;-51
2021/05/28 01:57:30;;;;;;;10.97;9.00;;;;;;;;;;5050147;28;20457;-51
2021/05/28 01:59:56;;;;;;;12.13;8.57;;;;;;;;;;5050285;28;20784;-51
2021/05/28 02:02:22;;;;;;;9.93;8.33;;;;;;;;;;5049841;28;20925;-51
2021/05/28 02:04:48;;;;;;;11.03;8.50;;;;;;;;;;5050218;28;20389;-51
2021/05/28 02:07:14;;;;;;;16.13;9.03;;;;;;;;;;5050024;28;20393;-51
2021/05/28 02:09:40;;;;;;;11.10;9.27;;;;;;;;;;5050290;28;20719;-51
2021/05/28 02:12:07;;;;;;;10.10;8.10;;;;;;;;;;5049947;28;20450;-50
2021/05/28 02:14:32;;;;;;;10.67;9.10;;;;;;;;;;5050107;28;20464;-51
2021/05/28 02:16:58;;;;;;;14.20;8.70;;;;;;;;;;5053138;28;20752;-51
2021/05/28 02:19:25;;;;;;;14.13;8.90;;;;;;;;;;5053858;28;20862;-51
2021/05/28 02:21:51;;;;;;;9.17;8.13;;;;;;;;;;5053580;28;20401;-51
2021/05/28 02:24:18;;;;;;;13.33;7.93;;;;;;;;;;5053848;28;20404;-51
2021/05/28 02:26:45;;;;;;;11.70;8.70;;;;;;;;;;5053807;28;20455;-51
2021/05/28 02:29:12;;;;;;;15.50;10.83;;;;;;;;;;5053535;28;21003;-51
2021/05/28 02:31:38;;;;;;;15.37;9.70;;;;;;;;;;5053766;28;20410;-51
2021/05/28 02:34:04;;;;;;;13.20;9.27;;;;;;;;;;5053444;28;20496;-51
2021/05/28 02:36:30;;;;;;;18.43;10.87;;;;;;;;;;5053598;28;20412;-51
2021/05/28 02:38:56;;;;;;;11.50;10.37;;;;;;;;;;5053411;28;20464;-51
2021/05/28 02:41:22;;;;;;;16.17;10.00;;;;;;;;;;5053398;28;20404;-51
2021/05/28 02:43:48;;;;;;;17.33;10.40;;;;;;;;;;5053273;28;20492;-51
2021/05/28 02:46:15;;;;;;;14.80;11.17;;;;;;;;;;5053468;28;20492;-51
2021/05/28 02:48:41;;;;;;;17.73;11.17;;;;;;;;;;5053099;28;20967;-51
2021/05/28 02:51:07;;;;;;;14.30;11.07;;;;;;;;;;5053735;28;20470;-51
2021/05/28 02:53:34;;;;;;;12.97;11.50;;;;;;;;;;5052911;28;20408;-51
2021/05/28 02:56:04;;;;;;;13.03;11.63;;;;;;;;;;5053345;28;20401;-51
2021/05/28 02:58:30;;;;;;;14.40;9.93;;;;;;;;;;5052911;28;20461;-51
2021/05/28 03:00:56;;;;;;;17.00;10.47;;;;;;;;;;5053222;28;20527;-51
2021/05/28 03:03:23;;;;;;;11.40;9.93;;;;;;;;;;5052729;28;20394;-51
2021/05/28 03:05:50;;;;;;;11.27;9.90;;;;;;;;;;5053089;28;20891;-51
2021/05/28 03:08:16;;;;;;;11.27;10.13;;;;;;;;;;5052902;28;20504;-51
2021/05/28 03:10:43;;;;;;;13.57;10.90;;;;;;;;;;5053004;28;20777;-51
2021/05/28 03:13:08;;;;;;;12.60;10.73;;;;;;;;;;5052554;28;20408;-51
2021/05/28 03:15:36;;;;;;;16.43;10.50;;;;;;;;;;5052870;28;20410;-51
2021/05/28 03:18:02;;;;;;;18.50;11.70;;;;;;;;;;5052602;28;21180;-51
2021/05/28 03:20:36;;;;;;;14.50;11.30;;;;;;;;;;5053000;28;20393;-51
2021/05/28 03:23:06;;;;;;;14.93;11.40;;;;;;;;;;5052610;28;20401;-51
2021/05/28 03:25:33;;;;;;;14.13;10.20;;;;;;;;;;5052683;28;20573;-51
2021/05/28 03:27:59;;;;;;;17.97;12.50;;;;;;;;;;5052313;28;20434;-51
2021/05/28 03:30:25;;;;;;;13.17;11.40;;;;;;;;;;5052856;28;20405;-51
2021/05/28 03:32:51;;;;;;;14.90;11.87;;;;;;;;;;5052771;28;20451;-51
2021/05/28 03:35:17;;;;;;;12.33;9.90;;;;;;;;;;5052447;28;20413;-51
2021/05/28 03:37:43;;;;;;;12.70;11.23;;;;;;;;;;5052396;28;20457;-51
2021/05/28 03:40:10;;;;;;;12.63;10.00;;;;;;;;;;5052292;28;20966;-51
2021/05/28 03:42:36;;;;;;;11.17;10.07;;;;;;;;;;5052166;28;20772;-50
2021/05/28 03:45:02;;;;;;;13.37;10.10;;;;;;;;;;5052464;28;20462;-50
2021/05/28 03:47:28;;;;;;;13.70;10.60;;;;;;;;;;5052193;28;20429;-51
2021/05/28 03:49:54;;;;;;;11.40;10.30;;;;;;;;;;5052165;28;20450;-51
2021/05/28 03:52:20;;;;;;;14.87;11.77;;;;;;;;;;5051585;28;20495;-51
2021/05/28 03:54:46;;;;;;;15.90;11.17;;;;;;;;;;5051662;28;20398;-51
2021/05/28 03:57:13;;;;;;;14.60;9.90;;;;;;;;;;5052152;28;20809;-51
2021/05/28 03:59:39;;;;;;;13.10;11.30;;;;;;;;;;5052021;28;20407;-51
2021/05/28 04:02:05;;;;;;;13.73;11.03;;;;;;;;;;5052166;28;20822;-51
2021/05/28 04:04:32;;;;;;;13.03;10.37;;;;;;;;;;5051763;28;20394;-51
2021/05/28 04:06:58;;;;;;;12.47;10.37;;;;;;;;;;5051966;28;20398;-51
2021/05/28 04:09:24;;;;;;;15.90;10.60;;;;;;;;;;5051681;28;20774;-51
2021/05/28 04:11:50;;;;;;;11.70;10.60;;;;;;;;;;5051718;28;20960;-51
2021/05/28 04:14:16;;;;;;;18.37;10.50;;;;;;;;;;5051633;28;20979;-51
2021/05/28 04:16:42;;;;;;;13.17;9.97;;;;;;;;;;5051797;28;20401;-51
2021/05/28 04:19:08;;;;;;;19.37;10.37;;;;;;;;;;5051595;28;20556;-51
2021/05/28 04:21:34;;;;;;;17.30;10.60;;;;;;;;;;5051383;28;20397;-51
2021/05/28 04:24:00;;;;;;;14.60;10.20;;;;;;;;;;5051504;28;20930;-51
2021/05/28 04:26:27;;;;;;;12.53;10.73;;;;;;;;;;5051438;28;20398;-51
2021/05/28 04:28:53;;;;;;;20.97;11.17;;;;;;;;;;5051401;28;20967;-50
2021/05/28 04:31:19;;;;;;;15.93;10.60;;;;;;;;;;5051082;28;20429;-51
2021/05/28 04:33:45;;;;;;;12.53;9.93;;;;;;;;;;5051468;28;20793;-51
2021/05/28 04:36:11;;;;;;;17.30;12.83;;;;;;;;;;5051272;28;20416;-51
2021/05/28 04:38:37;;;;;;;20.00;12.97;;;;;;;;;;5050835;28;20893;-51
2021/05/28 04:41:04;;;;;;;19.50;13.10;;;;;;;;;;5051340;28;20425;-51
2021/05/28 04:43:30;;;;;;;31.47;16.73;;;;;;;;;;5051035;28;20951;-51
2021/05/28 04:45:57;;;;;;;25.93;16.70;;;;;;;;;;5051044;28;20401;-51
2021/05/28 04:48:23;;;;;;;33.37;20.57;;;;;;;;;;5051472;28;20920;-51
2021/05/28 04:50:49;;;;;;;30.67;19.20;;;;;;;;;;5051499;28;20397;-51
2021/05/28 04:53:15;;;;;;;33.43;19.83;;;;;;;;;;5051017;28;20408;-51
2021/05/28 04:55:41;;;;;;;33.23;19.93;;;;;;;;;;5050912;28;20409;-51
2021/05/28 04:58:07;;;;;;;39.90;21.93;;;;;;;;;;5050859;28;20532;-51
2021/05/28 05:00:33;;;;;;;41.27;21.23;;;;;;;;;;5050796;28;20544;-51
2021/05/28 05:02:59;;;;;;;33.37;20.50;;;;;;;;;;5051143;28;20397;-51
2021/05/28 05:05:26;;;;;;;38.10;19.87;;;;;;;;;;5050685;28;20452;-51
2021/05/28 05:07:52;;;;;;;27.17;18.27;;;;;;;;;;5050873;28;20780;-51
2021/05/28 05:10:18;;;;;;;32.33;19.20;;;;;;;;;;5050852;28;20409;-51
2021/05/28 05:12:45;;;;;;;34.23;20.73;;;;;;;;;;5050684;28;20398;-51
2021/05/28 05:15:12;;;;;;;29.00;18.93;;;;;;;;;;5050705;28;20405;-50
2021/05/28 05:17:38;;;;;;;59.47;20.50;;;;;;;;;;5050571;28;20489;-51
2021/05/28 05:20:06;;;;;;;34.23;21.37;;;;;;;;;;5050679;28;20404;-51
2021/05/28 05:22:33;;;;;;;29.73;20.00;;;;;;;;;;5050381;28;20951;-51
2021/05/28 05:24:59;;;;;;;56.03;19.33;;;;;;;;;;5050660;28;20451;-51
2021/05/28 05:27:27;;;;;;;32.23;20.20;;;;;;;;;;5050700;28;20409;-51
2021/05/28 05:29:53;;;;;;;36.37;21.37;;;;;;;;;;5051627;28;20397;-49
2021/05/28 05:32:18;;;;;;;94.37;25.00;;;;;;;;;;5050612;28;20416;-50
2021/05/28 05:34:45;;;;;;;45.07;20.97;;;;;;;;;;5051044;28;20425;-50
2021/05/28 05:37:13;;;;;;;37.97;21.73;;;;;;;;;;5050966;28;20413;-51
2021/05/28 05:39:39;;;;;;;39.93;22.50;;;;;;;;;;5051345;28;20401;-50
2021/05/28 05:42:06;;;;;;;32.60;21.10;;;;;;;;;;5050622;28;20455;-50
2021/05/28 05:44:33;;;;;;;31.67;19.77;;;;;;;;;;5050909;28;20901;-50
2021/05/28 05:46:59;;;;;;;38.70;20.80;;;;;;;;;;5050732;28;20417;-50
2021/05/28 05:49:25;;;;;;;33.63;20.33;;;;;;;;;;5051782;28;20940;-50
2021/05/28 05:51:51;;;;;;;32.17;19.50;;;;;;;;;;5055005;28;20927;-50
2021/05/28 05:54:17;;;;;;;29.67;19.90;;;;;;;;;;5054879;28;20976;-50
2021/05/28 05:56:43;;;;;;;43.77;17.83;;;;;;;;;;5054565;28;20405;-50
2021/05/28 05:59:09;;;;;;;52.77;19.37;;;;;;;;;;5054519;28;20801;-50
2021/05/28 06:01:35;;;;;;;58.93;18.90;;;;;;;;;;5052971;28;20508;-50
2021/05/28 06:04:01;;;;;;;29.00;17.93;;;;;;;;;;5054226;28;20397;-50
2021/05/28 06:06:27;;;;;;;27.80;17.73;;;;;;;;;;5054556;28;20397;-50
2021/05/28 06:08:53;;;;;;;28.77;19.70;;;;;;;;;;5054385;28;20511;-50
2021/05/28 06:11:20;;;;;;;28.87;18.13;;;;;;;;;;5054053;28;20438;-50
2021/05/28 06:13:46;;;;;;;36.20;19.57;;;;;;;;;;5054093;28;20401;-50
2021/05/28 06:16:12;;;;;;;28.77;18.33;;;;;;;;;;5053792;28;20409;-50
2021/05/28 06:18:38;;;;;;;29.83;17.93;;;;;;;;;;5053860;28;20548;-50
2021/05/28 06:21:06;;;;;;;25.53;16.27;;;;;;;;;;5053944;28;20432;-50
2021/05/28 06:23:32;;;;;;;23.70;15.63;;;;;;;;;;5053886;28;20430;-49
2021/05/28 06:25:58;;;;;;;31.93;17.20;;;;;;;;;;5054258;28;20467;-49
2021/05/28 06:28:26;;;;;;;23.60;15.13;;;;;;;;;;5054070;28;20425;-50
2021/05/28 06:30:53;;;;;;;28.10;16.83;;;;;;;;;;5054165;28;20417;-50
2021/05/28 06:33:20;;;;;;;24.97;15.20;;;;;;;;;;5053583;28;20448;-51
2021/05/28 06:35:46;;;;;;;24.77;16.70;;;;;;;;;;5054161;28;20408;-51
2021/05/28 06:38:13;;;;;;;22.07;15.53;;;;;;;;;;5053697;28;20821;-51
2021/05/28 06:40:39;;;;;;;21.83;15.20;;;;;;;;;;5053853;28;20400;-50
2021/05/28 06:43:07;;;;;;;23.13;14.50;;;;;;;;;;5053687;28;20429;-50
2021/05/28 06:45:35;;;;;;;18.03;13.30;;;;;;;;;;5053854;28;20403;-50
2021/05/28 06:48:02;;;;;;;22.00;14.80;;;;;;;;;;5052353;28;20989;-50
2021/05/28 06:50:31;;;;;;;22.87;14.60;;;;;;;;;;5053982;28;20409;-50
2021/05/28 06:52:57;;;;;;;26.03;16.57;;;;;;;;;;5053422;28;20406;-50
2021/05/28 06:55:24;;;;;;;24.70;14.53;;;;;;;;;;5053885;28;20409;-50
2021/05/28 06:57:50;;;;;;;21.63;15.23;;;;;;;;;;5053473;28;20971;-49
2021/05/28 07:00:16;;;;;;;19.97;13.60;;;;;;;;;;5053624;28;20894;-50
2021/05/28 07:02:42;;;;;;;22.17;15.03;;;;;;;;;;5051554;28;20497;-50
2021/05/28 07:05:09;;;;;;;19.10;13.13;;;;;;;;;;5053799;28;20499;-50
2021/05/28 07:07:35;;;;;;;22.30;14.40;;;;;;;;;;5053827;28;20429;-51
2021/05/28 07:10:01;;;;;;;20.00;13.50;;;;;;;;;;5053587;28;20688;-50
2021/05/28 07:12:27;;;;;;;24.63;14.57;;;;;;;;;;5053129;28;20442;-51
2021/05/28 07:14:53;;;;;;;23.10;14.00;;;;;;;;;;5053552;28;20413;-50
2021/05/28 07:17:21;;;;;;;25.83;14.50;;;;;;;;;;5053498;28;20409;-50
2021/05/28 07:19:47;;;;;;;26.87;17.57;;;;;;;;;;5053469;28;20406;-50
2021/05/28 07:22:13;;;;;;;27.87;16.67;;;;;;;;;;5053386;28;20957;-51
2021/05/28 07:24:39;;;;;;;27.40;15.63;;;;;;;;;;5053513;28;20419;-50
2021/05/28 07:27:06;;;;;;;24.27;16.03;;;;;;;;;;5053613;28;20399;-50
2021/05/28 07:29:32;;;;;;;25.07;17.17;;;;;;;;;;5053090;28;20435;-52
2021/05/28 07:31:58;;;;;;;28.43;18.13;;;;;;;;;;5053088;28;20407;-52
2021/05/28 07:34:24;;;;;;;33.33;21.97;;;;;;;;;;5052786;28;20900;-50
2021/05/28 07:36:53;;;;;;;33.10;18.03;;;;;;;;;;5053284;28;20393;-50
2021/05/28 07:39:19;;;;;;;31.40;20.37;;;;;;;;;;5052982;28;20973;-51
2021/05/28 07:41:47;;;;;;;39.33;20.50;;;;;;;;;;5052331;28;20484;-51
2021/05/28 07:44:14;;;;;;;28.77;19.60;;;;;;;;;;5052861;28;20400;-50
2021/05/28 07:46:43;;;;;;;32.70;20.67;;;;;;;;;;5052945;28;20750;-50
2021/05/28 07:49:10;;;;;;;37.10;22.10;;;;;;;;;;5052732;28;20785;-52
2021/05/28 07:51:36;;;;;;;35.83;21.40;;;;;;;;;;5052682;28;20411;-50
2021/05/28 07:54:02;;;;;;;33.50;21.50;;;;;;;;;;5052384;28;20408;-50
2021/05/28 07:56:29;;;;;;;41.57;21.27;;;;;;;;;;5052383;28;20779;-50
2021/05/28 07:58:56;;;;;;;36.60;22.50;;;;;;;;;;5052635;28;21070;-50
2021/05/28 08:01:22;;;;;;;34.17;22.00;;;;;;;;;;5052421;28;20939;-51
2021/05/28 08:03:48;;;;;;;37.30;21.67;;;;;;;;;;5051746;28;20427;-50
2021/05/28 08:06:14;;;;;;;33.87;21.20;;;;;;;;;;5052364;28;20404;-50
2021/05/28 08:08:40;;;;;;;32.53;21.60;;;;;;;;;;5052484;28;20485;-50
2021/05/28 08:11:07;;;;;;;29.47;17.90;;;;;;;;;;5052158;28;20494;-50
2021/05/28 08:13:35;;;;;;;28.40;17.77;;;;;;;;;;5051446;28;20401;-49
2021/05/28 08:16:01;;;;;;;27.13;18.80;;;;;;;;;;5052319;28;20402;-51
2021/05/28 08:18:29;;;;;;;37.90;22.30;;;;;;;;;;5052201;28;20447;-52
2021/05/28 08:20:55;;;;;;;29.50;19.13;;;;;;;;;;5052123;28;20397;-51
2021/05/28 08:23:21;;;;;;;29.20;18.93;;;;;;;;;;5051868;28;20401;-50
2021/05/28 08:25:49;;;;;;;28.83;18.70;;;;;;;;;;5051808;28;20392;-50
2021/05/28 08:28:16;;;;;;;24.80;18.07;;;;;;;;;;5052194;28;21054;-50
2021/05/28 08:30:42;;;;;;;28.00;18.67;;;;;;;;;;5052307;28;20411;-50
2021/05/28 08:33:11;;;;;;;29.00;18.97;;;;;;;;;;5052059;28;20439;-50
2021/05/28 08:35:46;;;;;;;27.03;18.10;;;;;;;;;;5068138;28;20551;-51
2021/05/28 08:38:12;;;;;;;32.57;19.53;;;;;;;;;;5067172;28;20496;-51
2021/05/28 08:40:38;;;;;;;34.43;21.40;;;;;;;;;;5068290;28;20423;-50
2021/05/28 08:43:07;;;;;;;33.00;19.53;;;;;;;;;;5068268;28;20392;-50
2021/05/28 08:45:33;;;;;;;35.10;19.53;;;;;;;;;;5068414;28;20463;-50
2021/05/28 08:47:59;;;;;;;30.00;20.03;;;;;;;;;;5068219;28;20422;-50
2021/05/28 08:50:26;;;;;;;32.47;19.37;;;;;;;;;;5068092;28;20458;-50
2021/05/28 08:52:52;;;;;;;32.77;18.40;;;;;;;;;;5067937;28;20409;-51
2021/05/28 08:55:18;;;;;;;27.40;16.20;;;;;;;;;;5068206;28;20397;-50
2021/05/28 08:57:44;;;;;;;21.70;15.00;;;;;;;;;;5068146;28;20432;-50
2021/05/28 09:00:11;;;;;;;25.67;14.90;;;;;;;;;;5065960;28;20421;-50
2021/05/28 09:02:39;;;;;;;20.13;13.53;;;;;;;;;;5056012;28;20404;-50
2021/05/28 09:05:06;;;;;;;24.07;15.20;;;;;;;;;;5049197;28;20587;-50
2021/05/28 09:07:33;;;;;;;21.13;13.40;;;;;;;;;;5061284;28;20425;-50
2021/05/28 09:10:00;;;;;;;20.43;13.63;;;;;;;;;;5067949;28;20416;-50
2021/05/28 09:12:34;;;;;;;20.07;13.03;;;;;;;;;;5067403;28;20419;-51
2021/05/28 09:15:00;;;;;;;21.20;13.80;;;;;;;;;;5067983;28;20405;-50
2021/05/28 09:17:46;;;;;;;20.80;13.60;;;;;;;;;;5068919;28;20379;-51
2021/05/28 09:20:12;;;;;;;20.13;13.97;;;;;;;;;;5067356;28;20415;-50
2021/05/28 09:22:40;;;;;;;25.20;14.10;;;;;;;;;;5067341;28;20375;-51
2021/05/28 09:25:06;;;;;;;27.00;13.70;;;;;;;;;;5067646;28;20456;-50
2021/05/28 09:27:35;;;;;;;28.50;14.03;;;;;;;;;;5067559;28;20452;-50
2021/05/28 09:30:12;;;;;;;24.30;13.43;;;;;;;;;;5067643;28;20387;-51
2021/05/28 09:32:49;;;;;;;19.63;12.23;;;;;;;;;;5067314;28;20443;-49
2021/05/28 09:35:16;;;;;;;23.23;13.60;;;;;;;;;;5067198;28;20912;-51
2021/05/28 09:37:47;;;;;;;24.73;13.77;;;;;;;;;;5067279;28;20456;-50
2021/05/28 09:40:17;;;;;;;17.50;10.80;;;;;;;;;;5066970;28;20437;-51
2021/05/28 09:43:03;;;;;;;22.27;12.50;;;;;;;;;;5066706;28;20419;-50
2021/05/28 09:45:35;;;;;;;23.13;13.00;;;;;;;;;;5062589;28;20512;-50
2021/05/28 09:48:21;;;;;;;21.80;12.57;;;;;;;;;;5053946;28;20461;-50
2021/05/28 09:50:49;;;;;;;18.90;11.70;;;;;;;;;;5053649;28;20420;-50
2021/05/28 09:53:29;;;;;;;22.27;11.43;;;;;;;;;;5052343;28;20811;-50
2021/05/28 09:55:55;;;;;;;21.57;12.00;;;;;;;;;;5054083;28;20578;-50
2021/05/28 09:58:22;;;;;;;20.30;10.87;;;;;;;;;;5053909;28;20456;-51
2021/05/28 10:00:48;;;;;;;15.93;9.17;;;;;;;;;;5053577;28;20940;-50
2021/05/28 10:03:21;;;;;;;15.00;8.20;;;;;;;;;;5053376;28;20408;-50
2021/05/28 10:05:50;;;;;;;10.00;6.47;;;;;;;;;;5053622;28;20413;-51
2021/05/28 10:08:17;;;;;;;18.27;11.43;;;;;;;;;;5053751;28;20425;-50
2021/05/28 10:10:44;;;;;;;15.17;9.87;;;;;;;;;;5053963;28;20400;-51
2021/05/28 10:13:11;;;;;;;13.50;9.43;;;;;;;;;;5053400;28;20402;-50
2021/05/28 10:15:42;;;;;;;11.37;7.73;;;;;;;;;;5053785;28;20776;-50
2021/05/28 10:18:08;;;;;;;11.07;7.70;;;;;;;;;;5053274;28;20425;-52
2021/05/28 10:20:34;;;;;;;12.67;8.27;;;;;;;;;;5053435;28;20408;-50
2021/05/28 10:23:00;;;;;;;10.70;7.67;;;;;;;;;;5053443;28;20429;-50
2021/05/28 10:25:26;;;;;;;7.00;5.50;;;;;;;;;;5052498;28;20930;-51
2021/05/28 10:27:54;;;;;;;8.23;6.67;;;;;;;;;;5053453;28;20395;-50
2021/05/28 10:30:21;;;;;;;6.47;5.33;;;;;;;;;;5053254;28;20412;-51
2021/05/28 10:33:05;;;;;;;10.90;6.97;;;;;;;;;;5053787;28;20805;-50
2021/05/28 10:35:45;;;;;;;11.90;6.30;;;;;;;;;;5053083;28;20424;-50
2021/05/28 10:38:34;;;;;;;8.00;5.70;;;;;;;;;;5053007;28;20424;-50
2021/05/28 10:41:00;;;;;;;6.83;5.67;;;;;;;;;;5053335;28;20893;-50
2021/05/28 10:43:27;;;;;;;8.20;5.70;;;;;;;;;;5052593;28;20904;-50
2021/05/28 10:45:58;;;;;;;7.10;5.40;;;;;;;;;;5053607;28;20767;-50
2021/05/28 10:51:05;;;;;;;6.13;5.47;;;;;;;;;;5053010;28;20390;-50
2021/05/28 10:53:31;;;;;;;7.17;5.90;;;;;;;;;;5052361;28;20778;-50
2021/05/28 10:56:01;;;;;;;7.13;5.20;;;;;;;;;;5052326;28;20401;-50
2021/05/28 10:58:46;;;;;;;6.97;5.37;;;;;;;;;;5050976;28;20421;-50
2021/05/28 11:01:30;;;;;;;8.70;6.30;;;;;;;;;;5052209;28;20496;-53
2021/05/28 11:03:56;;;;;;;7.23;4.80;;;;;;;;;;5051863;28;20455;-49
2021/05/28 11:06:22;;;;;;;5.90;5.30;;;;;;;;;;5052093;28;20789;-50
2021/05/28 11:08:51;;;;;;;6.90;5.37;;;;;;;;;;5051813;28;20417;-50
2021/05/28 11:11:36;;;;;;;7.03;4.03;;;;;;;;;;5051589;28;20417;-50
2021/05/28 11:14:04;;;;;;;4.17;3.77;;;;;;;;;;5052169;28;20460;-51
2021/05/28 11:16:50;;;;;;;7.03;4.47;;;;;;;;;;5051746;28;20405;-49
2021/05/28 11:19:22;;;;;;;7.10;4.63;;;;;;;;;;5051686;28;20428;-51
2021/05/28 11:21:54;;;;;;;4.97;4.47;;;;;;;;;;5051592;28;20409;-52
2021/05/28 11:24:20;;;;;;;6.70;5.40;;;;;;;;;;5051826;28;20476;-51
2021/05/28 11:26:46;;;;;;;8.23;4.67;;;;;;;;;;5051715;28;20811;-51
2021/05/28 11:29:21;;;;;;;5.90;4.73;;;;;;;;;;5051828;28;20429;-51
2021/05/28 11:31:47;;;;;;;10.67;4.50;;;;;;;;;;5051525;28;20393;-50
2021/05/28 11:34:14;;;;;;;6.07;5.00;;;;;;;;;;5051686;28;20527;-50
2021/05/28 11:36:41;;;;;;;5.50;3.90;;;;;;;;;;5051638;28;20405;-50
2021/05/28 11:39:09;;;;;;;6.87;4.83;;;;;;;;;;5051539;28;20433;-52
2021/05/28 11:41:52;;;;;;;5.70;4.60;;;;;;;;;;5051358;28;20409;-50
2021/05/28 11:44:22;;;;;;;4.67;4.27;;;;;;;;;;5051518;28;20453;-50
2021/05/28 11:46:51;;;;;;;4.70;4.30;;;;;;;;;;5051350;28;20506;-51
2021/05/28 11:49:18;;;;;;;4.63;4.20;;;;;;;;;;5064539;28;20974;-50
2021/05/28 11:51:45;;;;;;;4.50;4.07;;;;;;;;;;5065755;28;21045;-50
2021/05/28 11:54:22;;;;;;;4.60;4.20;;;;;;;;;;5054473;28;20410;-51
2021/05/28 11:57:01;;;;;;;5.87;4.70;;;;;;;;;;5050502;28;20405;-51
2021/05/28 11:59:45;;;;;;;6.20;5.03;;;;;;;;;;5051170;28;20893;-51
2021/05/28 12:02:11;;;;;;;5.17;4.67;;;;;;;;;;5050475;28;20885;-51
2021/05/28 12:04:38;;;;;;;6.00;5.40;;;;;;;;;;5050852;28;20547;-51
2021/05/28 12:07:08;;;;;;;6.30;5.40;;;;;;;;;;5050876;28;20840;-51
2021/05/28 12:09:34;;;;;;;4.40;4.10;;;;;;;;;;5050341;28;20418;-51
2021/05/28 12:12:02;;;;;;;6.53;5.10;;;;;;;;;;5050644;28;20546;-51
2021/05/28 12:14:28;;;;;;;4.80;4.23;;;;;;;;;;5050539;28;20402;-51
2021/05/28 12:16:53;;;;;;;4.43;3.77;;;;;;;;;;5050701;28;20916;-51
2021/05/28 12:19:19;;;;;;;3.90;3.40;;;;;;;;;;5050554;28;20794;-51
2021/05/28 12:21:46;;;;;;;5.80;4.57;;;;;;;;;;5050532;28;20503;-51
2021/05/28 12:24:16;;;;;;;4.40;4.00;;;;;;;;;;5050543;28;20855;-51
2021/05/28 12:26:41;;;;;;;4.97;4.43;;;;;;;;;;5050846;28;20403;-51
2021/05/28 12:29:09;;;;;;;4.17;3.87;;;;;;;;;;5050440;28;20511;-51
2021/05/28 12:31:35;;;;;;;4.97;3.60;;;;;;;;;;5050706;28;20715;-51
2021/05/28 12:34:10;;;;;;;3.90;3.60;;;;;;;;;;5050314;28;20456;-51
2021/05/28 12:36:37;;;;;;;4.20;3.33;;;;;;;;;;5050492;28;20765;-51
2021/05/28 12:39:05;;;;;;;2.20;2.07;;;;;;;;;;5049175;28;20433;-51
2021/05/28 12:41:33;;;;;;;3.73;2.90;;;;;;;;;;5050251;28;20401;-51
2021/05/28 12:44:02;;;;;;;3.43;3.13;;;;;;;;;;5050263;28;20534;-50
2021/05/28 12:46:33;;;;;;;7.23;3.13;;;;;;;;;;5050443;28;20433;-51
2021/05/28 12:49:08;;;;;;;2.00;1.90;;;;;;;;;;5050605;28;20423;-51
2021/05/28 12:51:35;;;;;;;2.30;2.00;;;;;;;;;;5049892;28;20908;-51
2021/05/28 12:54:13;;;;;;;1.83;1.73;;;;;;;;;;5050288;28;20462;-51
2021/05/28 12:56:43;;;;;;;3.17;1.73;;;;;;;;;;5050350;28;20429;-52
2021/05/28 12:59:19;;;;;;;2.10;2.00;;;;;;;;;;5050361;28;20860;-51
2021/05/28 13:01:45;;;;;;;2.57;2.13;;;;;;;;;;5049269;28;20881;-51
2021/05/28 13:04:13;;;;;;;2.07;1.90;;;;;;;;;;5050135;28;20484;-51
2021/05/28 13:06:47;;;;;;;3.30;1.80;;;;;;;;;;5050015;28;20763;-51
2021/05/28 13:09:32;;;;;;;2.50;2.30;;;;;;;;;;5050290;28;20429;-51
2021/05/28 13:12:07;;;;;;;2.67;2.33;;;;;;;;;;5049991;28;20404;-51
2021/05/28 13:14:35;;;;;;;2.43;2.33;;;;;;;;;;5049954;28;20928;-51
2021/05/28 13:17:20;;;;;;;2.33;2.17;;;;;;;;;;5049948;28;20413;-51
2021/05/28 13:19:53;;;;;;;4.33;2.00;;;;;;;;;;5050199;28;20508;-51
2021/05/28 13:22:49;;;;;;;3.73;1.80;;;;;;;;;;5053023;28;20401;-51
2021/05/28 13:25:27;;;;;;;1.90;1.70;;;;;;;;;;5049275;28;20456;-51
2021/05/28 13:28:10;;;;;;;3.30;2.80;;;;;;;;;;5053593;28;20474;-51
2021/05/28 13:30:46;;;;;;;2.00;1.90;;;;;;;;;;5054083;28;20405;-51
2021/05/28 13:33:12;;;;;;;2.70;2.10;;;;;;;;;;5053357;28;20447;-51
2021/05/28 13:35:38;;;;;;;2.63;2.43;;;;;;;;;;5053638;28;20906;-51
2021/05/28 13:38:05;;;;;;;2.77;2.53;;;;;;;;;;5053420;28;20483;-51
2021/05/28 13:40:31;;;;;;;2.50;2.00;;;;;;;;;;5053767;28;20408;-51
2021/05/28 13:42:58;;;;;;;2.33;2.00;;;;;;;;;;5053519;28;20405;-51
2021/05/28 13:45:24;;;;;;;5.43;1.97;;;;;;;;;;5054122;28;20453;-50
2021/05/28 13:47:50;;;;;;;2.00;1.90;;;;;;;;;;5053779;28;20475;-50
2021/05/28 13:50:16;;;;;;;2.03;1.83;;;;;;;;;;5053464;28;20924;-52
2021/05/28 13:52:43;;;;;;;2.20;1.80;;;;;;;;;;5053283;28;20405;-52
2021/05/28 13:55:09;;;;;;;2.03;1.93;;;;;;;;;;5053448;28;20763;-50
2021/05/28 13:57:35;;;;;;;2.80;1.60;;;;;;;;;;5053585;28;20421;-50
2021/05/28 14:00:04;;;;;;;2.10;1.97;;;;;;;;;;5053972;28;20446;-51
2021/05/28 14:02:30;;;;;;;3.70;2.70;;;;;;;;;;5052825;28;20416;-51
2021/05/28 14:04:57;;;;;;;1.87;1.77;;;;;;;;;;5052924;28;20445;-51
2021/05/28 14:07:23;;;;;;;2.03;1.93;;;;;;;;;;5052819;28;20454;-51
2021/05/28 14:09:49;;;;;;;1.90;1.80;;;;;;;;;;5053170;28;20487;-51
2021/05/28 14:12:15;;;;;;;1.90;1.70;;;;;;;;;;5052742;28;20405;-51
2021/05/28 14:14:41;;;;;;;2.83;2.00;;;;;;;;;;5053099;28;20501;-51
2021/05/28 14:17:07;;;;;;;4.27;2.30;;;;;;;;;;5052885;28;20897;-51
2021/05/28 14:19:33;;;;;;;4.40;4.00;;;;;;;;;;5052475;28;20437;-51
2021/05/28 14:21:59;;;;;;;3.80;2.10;;;;;;;;;;5052623;28;20412;-52
2021/05/28 14:24:26;;;;;;;1.80;1.70;;;;;;;;;;5052699;28;21068;-51
2021/05/28 14:26:52;;;;;;;2.13;2.03;;;;;;;;;;5052078;28;20398;-51
2021/05/28 14:29:18;;;;;;;2.30;2.10;;;;;;;;;;5052457;28;20482;-51
2021/05/28 14:31:45;;;;;;;2.60;2.40;;;;;;;;;;5052543;28;20459;-51
2021/05/28 14:34:10;;;;;;;2.10;1.90;;;;;;;;;;5052420;28;20428;-51